Time;durP1;ratioP1;P1;durP2;ratioP2;P2;SDS_P1;SDS_P2;PMS_P1;PMS_P2;Temp;Humidity;BMP_temperature;BMP_pressure;BME280_temperature;BME280_humidity;BME280_pressure;Samples;Min_cycle;Max_cycle;Signal;HPM_P1;HPM_P2
2023/01/22 00:00:58;;;;;;;18.67;10.97;;;2.90;99.90;;;;;;5009273;28;20269;-68
2023/01/22 00:03:24;;;;;;;17.20;10.87;;;2.90;99.90;;;;;;5002632;28;20186;-65
2023/01/22 00:05:52;;;;;;;19.13;11.03;;;2.90;99.90;;;;;;4996317;28;20182;-62
2023/01/22 00:08:25;;;;;;;18.73;10.87;;;2.90;99.90;;;;;;5012565;28;20167;-67
2023/01/22 00:10:52;;;;;;;17.43;10.90;;;3.00;99.90;;;;;;5002475;28;20199;-67
2023/01/22 00:13:20;;;;;;;17.80;11.03;;;2.90;99.90;;;;;;5009088;28;20179;-65
2023/01/22 00:15:48;;;;;;;19.33;11.43;;;3.00;99.90;;;;;;5007199;28;20175;-66
2023/01/22 00:18:14;;;;;;;20.70;11.70;;;3.00;99.90;;;;;;4999612;28;20171;-66
2023/01/22 00:20:52;;;;;;;19.80;11.70;;;3.00;99.90;;;;;;5013641;28;20206;-67
2023/01/22 00:23:25;;;;;;;18.63;11.90;;;3.00;99.90;;;;;;4994478;28;20202;-66
2023/01/22 00:26:01;;;;;;;18.27;11.07;;;3.00;99.90;;;;;;5000396;28;20170;-64
2023/01/22 00:28:29;;;;;;;15.70;10.00;;;3.00;99.90;;;;;;5004208;28;20199;-66
2023/01/22 00:30:59;;;;;;;17.83;10.60;;;3.00;99.90;;;;;;5010883;28;20551;-66
2023/01/22 00:33:25;;;;;;;16.57;10.57;;;3.00;99.90;;;;;;5013484;28;20179;-65
2023/01/22 00:35:53;;;;;;;14.73;9.13;;;3.00;99.90;;;;;;5013677;28;20198;-67
2023/01/22 00:38:24;;;;;;;15.90;10.17;;;3.00;99.90;;;;;;5013626;28;20175;-66
2023/01/22 00:40:49;;;;;;;15.43;10.10;;;3.10;99.90;;;;;;5013801;28;20205;-67
2023/01/22 00:43:17;;;;;;;17.97;10.47;;;3.10;99.90;;;;;;5004342;28;20266;-63
2023/01/22 00:45:43;;;;;;;16.37;9.50;;;3.10;99.90;;;;;;5010551;28;20172;-66
2023/01/22 00:48:08;;;;;;;17.20;10.77;;;3.10;99.90;;;;;;5004295;28;20199;-64
2023/01/22 00:50:34;;;;;;;16.80;10.30;;;3.10;99.90;;;;;;4997729;28;20221;-66
2023/01/22 00:53:02;;;;;;;14.47;9.77;;;3.10;99.90;;;;;;4999209;28;20222;-63
2023/01/22 00:55:28;;;;;;;15.47;10.00;;;3.10;99.90;;;;;;5013865;28;20179;-65
2023/01/22 00:57:54;;;;;;;14.77;9.63;;;3.10;99.90;;;;;;4999368;28;20297;-63
2023/01/22 01:00:21;;;;;;;15.13;9.63;;;3.10;99.90;;;;;;4995401;28;20207;-63
2023/01/22 01:05:31;;;;;;;15.07;10.10;;;3.10;99.90;;;;;;5018349;28;20209;-63
2023/01/22 01:07:58;;;;;;;14.63;9.33;;;3.10;99.90;;;;;;5017595;28;20178;-63
2023/01/22 01:10:24;;;;;;;14.00;9.37;;;3.00;99.90;;;;;;5014731;28;20181;-63
2023/01/22 01:12:49;;;;;;;13.03;9.17;;;3.10;99.90;;;;;;4999505;28;20302;-63
2023/01/22 01:15:17;;;;;;;13.23;8.70;;;3.00;99.90;;;;;;4997723;28;20183;-63
2023/01/22 01:17:45;;;;;;;15.23;10.40;;;3.00;99.90;;;;;;5015225;28;20218;-63
2023/01/22 01:20:11;;;;;;;14.00;9.70;;;2.90;99.90;;;;;;5013470;28;20210;-63
2023/01/22 01:22:36;;;;;;;13.53;9.60;;;3.00;99.90;;;;;;5003942;28;20190;-63
2023/01/22 01:25:04;;;;;;;14.57;9.80;;;2.90;99.90;;;;;;5011767;28;20186;-63
2023/01/22 01:27:32;;;;;;;14.47;9.77;;;2.90;99.90;;;;;;5013436;28;20259;-62
2023/01/22 01:29:58;;;;;;;12.73;9.00;;;2.90;99.90;;;;;;4997630;28;20221;-63
2023/01/22 01:32:26;;;;;;;12.50;8.83;;;2.90;99.90;;;;;;4997494;28;20184;-63
2023/01/22 01:34:52;;;;;;;13.13;8.87;;;2.90;99.90;;;;;;5008221;28;20182;-63
2023/01/22 01:37:17;;;;;;;14.70;9.70;;;2.90;99.90;;;;;;5008362;28;20187;-62
2023/01/22 01:39:46;;;;;;;13.33;9.33;;;2.90;99.90;;;;;;5014829;28;20205;-62
2023/01/22 01:42:12;;;;;;;13.57;9.63;;;2.90;99.90;;;;;;5016587;28;20213;-62
2023/01/22 01:44:41;;;;;;;14.07;9.37;;;2.90;99.90;;;;;;5016578;28;20186;-63
2023/01/22 01:47:30;;;;;;;13.53;9.40;;;2.80;99.90;;;;;;5014237;28;20183;-63
2023/01/22 01:49:56;;;;;;;12.60;8.87;;;2.80;99.90;;;;;;5016484;28;20190;-64
2023/01/22 01:52:22;;;;;;;14.03;9.53;;;2.80;99.90;;;;;;5016400;28;20191;-62
2023/01/22 01:54:51;;;;;;;15.00;9.87;;;2.80;99.90;;;;;;5004549;28;20213;-63
2023/01/22 01:57:21;;;;;;;14.67;10.40;;;2.80;99.90;;;;;;5016118;28;20214;-63
2023/01/22 01:59:47;;;;;;;15.60;10.73;;;2.80;99.90;;;;;;5012988;28;20211;-63
2023/01/22 02:02:14;;;;;;;13.83;10.07;;;2.70;99.90;;;;;;4997090;28;20179;-63
2023/01/22 02:04:42;;;;;;;14.57;10.80;;;2.70;99.90;;;;;;5004884;28;20201;-63
2023/01/22 02:07:07;;;;;;;12.87;9.80;;;2.70;99.90;;;;;;5015864;28;20260;-63
2023/01/22 02:09:33;;;;;;;13.90;9.20;;;2.70;99.90;;;;;;5004216;28;20195;-64
2023/01/22 02:12:01;;;;;;;13.83;9.80;;;2.70;99.90;;;;;;4995460;28;20190;-63
2023/01/22 02:14:33;;;;;;;14.63;10.10;;;2.70;99.90;;;;;;4996494;28;20198;-62
2023/01/22 02:17:19;;;;;;;15.30;10.50;;;2.70;99.90;;;;;;5006054;28;20186;-63
2023/01/22 02:19:45;;;;;;;13.60;10.00;;;2.70;99.90;;;;;;5015511;28;20215;-63
2023/01/22 02:22:32;;;;;;;15.63;10.50;;;2.70;99.90;;;;;;5015073;28;20206;-63
2023/01/22 02:25:02;;;;;;;15.33;11.13;;;2.70;99.90;;;;;;5015680;28;20199;-62
2023/01/22 02:27:28;;;;;;;14.07;10.00;;;2.60;99.90;;;;;;5004914;28;20183;-63
2023/01/22 02:29:55;;;;;;;15.40;11.13;;;2.60;99.90;;;;;;5015924;28;20186;-63
2023/01/22 02:32:23;;;;;;;13.17;9.77;;;2.60;99.90;;;;;;5004772;28;20187;-64
2023/01/22 02:34:51;;;;;;;17.07;10.97;;;2.70;99.90;;;;;;5014523;28;20214;-64
2023/01/22 02:37:17;;;;;;;15.47;10.50;;;2.60;99.90;;;;;;5010956;28;20208;-64
2023/01/22 02:39:42;;;;;;;12.40;9.07;;;2.60;99.90;;;;;;5015131;28;20285;-63
2023/01/22 02:42:08;;;;;;;12.10;8.90;;;2.60;99.90;;;;;;5004721;28;20195;-63
2023/01/22 02:44:34;;;;;;;11.67;8.30;;;2.60;99.90;;;;;;5003266;28;20210;-63
2023/01/22 02:47:00;;;;;;;13.90;9.80;;;2.60;99.90;;;;;;5008673;28;20171;-63
2023/01/22 02:49:25;;;;;;;12.07;9.37;;;2.60;99.90;;;;;;4998145;28;20226;-64
2023/01/22 02:51:51;;;;;;;13.23;9.27;;;2.60;99.90;;;;;;5005447;28;20290;-63
2023/01/22 02:54:17;;;;;;;11.90;8.93;;;2.60;99.90;;;;;;5012224;28;20187;-63
2023/01/22 02:56:45;;;;;;;12.07;8.93;;;2.60;99.90;;;;;;5015221;28;20206;-64
2023/01/22 02:59:10;;;;;;;13.37;9.73;;;2.60;99.90;;;;;;5014688;28;20210;-63
2023/01/22 03:01:36;;;;;;;12.77;9.67;;;2.60;99.90;;;;;;5015297;28;20237;-64
2023/01/22 03:04:10;;;;;;;13.10;9.70;;;2.60;99.90;;;;;;5004525;28;20206;-63
2023/01/22 03:06:40;;;;;;;12.73;8.77;;;2.50;99.90;;;;;;5008079;28;20179;-66
2023/01/22 03:09:10;;;;;;;13.13;9.77;;;2.50;99.90;;;;;;5014025;28;20269;-63
2023/01/22 03:11:38;;;;;;;16.23;11.23;;;2.60;99.90;;;;;;5013926;28;20217;-64
2023/01/22 03:22:17;;;;;;;13.00;9.50;;;2.50;99.90;;;;;;5005535;28;20244;-63
2023/01/22 03:24:50;;;;;;;14.00;9.67;;;2.50;99.90;;;;;;5013312;28;20183;-63
2023/01/22 03:27:20;;;;;;;15.23;10.83;;;2.50;99.90;;;;;;5013471;28;20191;-64
2023/01/22 03:29:45;;;;;;;14.63;10.57;;;2.50;99.90;;;;;;5014477;28;20351;-63
2023/01/22 03:32:12;;;;;;;13.30;10.00;;;2.50;99.90;;;;;;5002884;28;20262;-64
2023/01/22 03:34:38;;;;;;;12.70;9.60;;;2.50;99.90;;;;;;5005912;28;20274;-63
2023/01/22 03:37:04;;;;;;;14.93;10.07;;;2.50;99.90;;;;;;5011970;28;20248;-64
2023/01/22 03:39:30;;;;;;;11.57;8.67;;;2.50;99.90;;;;;;5014177;28;20202;-63
2023/01/22 03:41:56;;;;;;;13.40;9.73;;;2.50;99.90;;;;;;5008988;28;20246;-63
2023/01/22 03:44:22;;;;;;;13.60;9.70;;;2.50;99.90;;;;;;5007159;28;20180;-63
2023/01/22 03:46:48;;;;;;;11.93;8.73;;;2.60;99.90;;;;;;5009825;28;20182;-64
2023/01/22 03:49:14;;;;;;;14.63;10.10;;;2.60;99.90;;;;;;5014238;28;20202;-63
2023/01/22 03:51:41;;;;;;;12.50;9.57;;;2.60;99.90;;;;;;4998720;28;20204;-63
2023/01/22 03:54:08;;;;;;;14.07;9.77;;;2.60;99.90;;;;;;4994689;28;20241;-62
2023/01/22 03:56:34;;;;;;;12.30;9.43;;;2.60;99.90;;;;;;4995448;28;20179;-63
2023/01/22 03:59:00;;;;;;;14.73;10.33;;;2.60;99.90;;;;;;5014199;28;20194;-63
2023/01/22 04:01:27;;;;;;;13.17;9.73;;;2.60;99.90;;;;;;5000735;28;20255;-63
2023/01/22 04:03:53;;;;;;;12.00;8.93;;;2.60;99.90;;;;;;4995987;28;20226;-63
2023/01/22 04:06:20;;;;;;;11.47;9.00;;;2.60;99.90;;;;;;5014362;28;20174;-63
2023/01/22 04:08:48;;;;;;;13.47;9.87;;;2.60;99.90;;;;;;5005860;28;20225;-64
2023/01/22 04:11:17;;;;;;;12.97;9.43;;;2.60;99.90;;;;;;5006207;28;20218;-62
2023/01/22 04:13:45;;;;;;;12.27;9.40;;;2.60;99.90;;;;;;4996718;28;20202;-63
2023/01/22 04:16:14;;;;;;;11.87;9.00;;;2.60;99.90;;;;;;4994703;28;20185;-63
2023/01/22 04:18:41;;;;;;;12.10;9.10;;;2.60;99.90;;;;;;4996859;28;20279;-63
2023/01/22 04:21:07;;;;;;;11.67;8.70;;;2.60;99.90;;;;;;5014106;28;20202;-63
2023/01/22 04:23:33;;;;;;;11.40;8.67;;;2.60;99.90;;;;;;5014060;28;20174;-63
2023/01/22 04:25:59;;;;;;;12.93;9.10;;;2.60;99.90;;;;;;5004749;28;20217;-63
2023/01/22 04:28:25;;;;;;;11.50;8.73;;;2.60;99.90;;;;;;5014940;28;20185;-63
2023/01/22 04:30:53;;;;;;;13.00;10.07;;;2.60;99.90;;;;;;5024906;28;20265;-63
2023/01/22 04:33:21;;;;;;;13.47;9.83;;;2.60;99.90;;;;;;5014133;28;20189;-62
2023/01/22 04:35:54;;;;;;;12.20;9.33;;;2.70;99.90;;;;;;5016577;28;20179;-63
2023/01/22 04:38:22;;;;;;;12.63;9.53;;;2.70;99.90;;;;;;5017749;28;20202;-63
2023/01/22 04:40:48;;;;;;;12.80;9.80;;;2.70;99.90;;;;;;5007272;28;20285;-63
2023/01/22 04:43:16;;;;;;;12.40;9.43;;;2.70;99.90;;;;;;5004745;28;20209;-63
2023/01/22 04:45:41;;;;;;;13.43;9.93;;;2.70;99.90;;;;;;5011821;28;20223;-64
2023/01/22 04:48:08;;;;;;;14.40;9.90;;;2.60;99.90;;;;;;5010043;28;20191;-63
2023/01/22 04:50:36;;;;;;;12.57;9.30;;;2.70;99.90;;;;;;5010858;28;20268;-63
2023/01/22 04:53:02;;;;;;;13.30;9.30;;;2.70;99.90;;;;;;5017887;28;20221;-63
2023/01/22 04:55:29;;;;;;;12.87;9.63;;;2.70;99.90;;;;;;5027784;28;20178;-63
2023/01/22 04:57:56;;;;;;;12.17;9.10;;;2.70;99.90;;;;;;5037608;28;20213;-63
2023/01/22 05:00:22;;;;;;;12.47;8.97;;;2.70;99.90;;;;;;5037192;28;20210;-62
2023/01/22 05:03:00;;;;;;;11.80;9.57;;;2.70;99.90;;;;;;5030712;28;20218;-63
2023/01/22 05:05:27;;;;;;;13.83;10.70;;;2.70;99.90;;;;;;5024183;28;20198;-62
2023/01/22 05:07:53;;;;;;;12.87;9.43;;;2.70;99.90;;;;;;5018169;28;20170;-63
2023/01/22 05:10:22;;;;;;;13.53;9.77;;;2.70;99.90;;;;;;5017792;28;20202;-62
2023/01/22 05:12:48;;;;;;;11.97;9.87;;;2.70;99.90;;;;;;5025668;28;20182;-63
2023/01/22 05:15:16;;;;;;;14.10;10.27;;;2.70;99.90;;;;;;5034133;28;20277;-63
2023/01/22 05:17:41;;;;;;;12.70;9.77;;;2.70;99.90;;;;;;4998528;28;20207;-63
2023/01/22 05:20:10;;;;;;;12.90;10.10;;;2.70;99.90;;;;;;5003260;28;20234;-63
2023/01/22 05:22:36;;;;;;;11.73;8.83;;;2.70;99.90;;;;;;5027556;28;20179;-62
2023/01/22 05:25:03;;;;;;;13.43;10.23;;;2.70;99.90;;;;;;5012701;28;20278;-63
2023/01/22 05:27:32;;;;;;;12.60;9.33;;;2.70;99.90;;;;;;5017894;28;20198;-64
2023/01/22 05:30:00;;;;;;;11.87;8.73;;;2.70;99.90;;;;;;5017230;28;20214;-63
2023/01/22 05:32:30;;;;;;;12.00;9.27;;;2.70;99.90;;;;;;5023027;28;20182;-63
2023/01/22 05:34:55;;;;;;;10.97;8.73;;;2.80;99.90;;;;;;5034156;28;20186;-63
2023/01/22 05:37:21;;;;;;;13.53;10.53;;;2.80;99.90;;;;;;5006600;28;20221;-63
2023/01/22 05:39:47;;;;;;;11.80;8.93;;;2.80;99.90;;;;;;5004412;28;20198;-63
2023/01/22 05:42:17;;;;;;;11.50;8.80;;;2.80;99.90;;;;;;5010346;28;20252;-63
2023/01/22 05:44:43;;;;;;;10.47;8.60;;;2.80;99.90;;;;;;5017248;28;20214;-62
2023/01/22 05:47:10;;;;;;;11.17;8.67;;;2.90;99.90;;;;;;5020981;28;20740;-63
2023/01/22 05:49:36;;;;;;;10.80;8.70;;;2.80;99.90;;;;;;5033346;28;20269;-63
2023/01/22 05:52:02;;;;;;;11.90;9.33;;;2.80;99.90;;;;;;5017072;28;20288;-63
2023/01/22 05:54:30;;;;;;;11.67;9.30;;;2.80;99.90;;;;;;5017051;28;20488;-63
2023/01/22 05:56:55;;;;;;;11.07;8.80;;;2.90;99.90;;;;;;5029062;28;20193;-62
2023/01/22 05:59:23;;;;;;;11.73;9.13;;;2.90;99.90;;;;;;5019545;28;20214;-63
2023/01/22 06:01:51;;;;;;;12.30;9.30;;;2.90;99.90;;;;;;5017079;28;20180;-63
2023/01/22 06:04:19;;;;;;;11.60;8.93;;;2.90;99.90;;;;;;5014221;28;20206;-64
2023/01/22 06:06:45;;;;;;;10.53;8.53;;;2.90;99.90;;;;;;5005311;28;20257;-64
2023/01/22 06:09:12;;;;;;;10.57;8.80;;;2.90;99.90;;;;;;4996847;28;20211;-64
2023/01/22 06:11:38;;;;;;;10.40;8.43;;;2.90;99.90;;;;;;5026977;28;20198;-63
2023/01/22 06:14:07;;;;;;;10.03;8.27;;;3.00;99.90;;;;;;5036067;28;20185;-65
2023/01/22 06:16:32;;;;;;;10.90;9.00;;;2.90;99.90;;;;;;5036357;28;20466;-64
2023/01/22 06:19:00;;;;;;;12.07;9.67;;;2.90;99.90;;;;;;5035292;28;20209;-64
2023/01/22 06:21:26;;;;;;;10.63;8.70;;;2.90;99.90;;;;;;5018189;28;20297;-63
2023/01/22 06:23:54;;;;;;;13.40;10.00;;;2.90;99.90;;;;;;5013368;28;20266;-64
2023/01/22 06:26:22;;;;;;;11.20;9.40;;;2.90;99.90;;;;;;5007155;28;20206;-64
2023/01/22 06:28:50;;;;;;;14.53;11.07;;;2.90;99.90;;;;;;5000173;28;20194;-64
2023/01/22 06:31:15;;;;;;;12.83;10.23;;;2.90;99.90;;;;;;5012729;28;20202;-64
2023/01/22 06:33:43;;;;;;;11.67;9.83;;;2.90;99.90;;;;;;5012857;28;20171;-64
2023/01/22 06:36:11;;;;;;;13.20;9.90;;;2.90;99.90;;;;;;5011481;28;20170;-64
2023/01/22 06:38:37;;;;;;;14.10;11.20;;;2.90;99.90;;;;;;5012223;28;20341;-65
2023/01/22 06:41:03;;;;;;;13.67;10.97;;;2.90;99.90;;;;;;5005812;28;20296;-64
2023/01/22 06:43:31;;;;;;;11.97;10.13;;;2.90;99.90;;;;;;5008372;28;20180;-64
2023/01/22 06:45:59;;;;;;;11.30;9.57;;;2.90;99.90;;;;;;5015512;28;20210;-64
2023/01/22 06:48:27;;;;;;;13.03;10.23;;;2.90;99.90;;;;;;5019269;28;20217;-64
2023/01/22 06:50:57;;;;;;;12.33;9.80;;;2.90;99.90;;;;;;5016034;28;20211;-64
2023/01/22 06:53:24;;;;;;;13.67;10.03;;;2.90;99.90;;;;;;5016094;28;20346;-64
2023/01/22 06:55:50;;;;;;;12.73;9.73;;;2.90;99.90;;;;;;5015964;28;20178;-63
2023/01/22 06:58:16;;;;;;;11.43;9.40;;;2.80;99.90;;;;;;5015401;28;20341;-64
2023/01/22 07:00:41;;;;;;;11.20;9.10;;;2.90;99.90;;;;;;5015901;28;20210;-64
2023/01/22 07:03:07;;;;;;;11.47;9.17;;;2.90;99.90;;;;;;5007636;28;20179;-64
2023/01/22 07:05:33;;;;;;;10.90;9.10;;;2.80;99.90;;;;;;4997572;28;20186;-64
2023/01/22 07:08:00;;;;;;;11.20;9.03;;;2.90;99.90;;;;;;5019932;28;20170;-64
2023/01/22 07:10:25;;;;;;;11.50;9.03;;;2.90;99.90;;;;;;5035435;28;20189;-64
2023/01/22 07:13:03;;;;;;;11.80;9.33;;;2.90;99.90;;;;;;5036158;28;20170;-64
2023/01/22 07:15:31;;;;;;;11.33;9.00;;;2.90;99.90;;;;;;5035472;28;20201;-64
2023/01/22 07:17:57;;;;;;;11.03;9.00;;;2.90;99.90;;;;;;5035138;28;20186;-64
2023/01/22 07:20:22;;;;;;;12.33;9.93;;;2.90;99.90;;;;;;5017857;28;20214;-65
2023/01/22 07:22:50;;;;;;;11.80;9.40;;;2.90;99.90;;;;;;4996476;28;20175;-65
2023/01/22 07:25:20;;;;;;;11.27;9.30;;;2.90;99.90;;;;;;4999843;28;20233;-63
2023/01/22 07:27:46;;;;;;;10.07;8.60;;;2.90;99.90;;;;;;5015555;28;20182;-63
2023/01/22 07:30:12;;;;;;;10.90;8.80;;;2.90;99.90;;;;;;5015097;28;20178;-63
2023/01/22 07:32:38;;;;;;;8.90;7.80;;;2.90;99.90;;;;;;5003699;28;20198;-64
2023/01/22 07:35:08;;;;;;;10.07;8.47;;;2.90;99.90;;;;;;4995560;28;20172;-64
2023/01/22 07:37:35;;;;;;;10.10;8.03;;;2.90;99.90;;;;;;5011051;28;20186;-64
2023/01/22 07:40:04;;;;;;;10.23;8.00;;;2.90;99.90;;;;;;5034761;28;20205;-64
2023/01/22 07:42:30;;;;;;;9.37;7.70;;;2.90;99.90;;;;;;5032402;28;20181;-63
2023/01/22 07:44:55;;;;;;;9.67;8.20;;;2.90;99.90;;;;;;5011762;28;20182;-64
2023/01/22 07:47:21;;;;;;;8.77;7.73;;;3.00;99.90;;;;;;5013629;28;20194;-64
2023/01/22 07:49:49;;;;;;;9.63;7.73;;;3.00;99.90;;;;;;5007371;28;20248;-64
2023/01/22 07:52:16;;;;;;;8.43;7.30;;;3.00;99.90;;;;;;4995116;28;20223;-64
2023/01/22 07:54:42;;;;;;;8.90;7.50;;;3.00;99.90;;;;;;5003909;28;20194;-62
2023/01/22 07:57:13;;;;;;;9.57;7.60;;;3.00;99.90;;;;;;5011526;28;20178;-63
2023/01/22 07:59:40;;;;;;;10.37;8.33;;;3.00;99.90;;;;;;4995571;28;20222;-63
2023/01/22 08:02:13;;;;;;;9.20;7.37;;;3.00;99.90;;;;;;4996834;28;20195;-63
2023/01/22 08:04:42;;;;;;;9.00;7.80;;;3.00;99.90;;;;;;5010869;28;20171;-63
2023/01/22 08:07:17;;;;;;;9.40;7.83;;;3.00;99.90;;;;;;5013150;28;20232;-63
2023/01/22 08:09:43;;;;;;;10.67;8.60;;;3.00;99.90;;;;;;5015574;28;20205;-64
2023/01/22 08:12:09;;;;;;;9.93;8.00;;;3.00;99.90;;;;;;5013714;28;20178;-62
2023/01/22 08:14:34;;;;;;;10.13;8.13;;;2.90;99.90;;;;;;5014230;28;20198;-62
2023/01/22 08:17:00;;;;;;;10.77;8.27;;;2.90;99.90;;;;;;5015222;28;20174;-62
2023/01/22 08:19:28;;;;;;;8.80;7.63;;;2.90;99.90;;;;;;5014245;28;20218;-63
2023/01/22 08:21:57;;;;;;;10.13;8.30;;;2.90;99.90;;;;;;4996810;28;20179;-62
2023/01/22 08:24:22;;;;;;;9.70;8.13;;;2.90;99.90;;;;;;5006300;28;20196;-61
2023/01/22 08:26:50;;;;;;;10.43;8.43;;;2.90;99.90;;;;;;5015468;28;20178;-63
2023/01/22 08:29:16;;;;;;;9.13;7.20;;;2.90;99.90;;;;;;5014422;28;20204;-62
2023/01/22 08:31:44;;;;;;;9.60;7.63;;;3.00;99.90;;;;;;5009273;28;20290;-63
2023/01/22 08:34:11;;;;;;;9.00;7.83;;;3.00;99.90;;;;;;4995027;28;20220;-63
2023/01/22 08:36:37;;;;;;;8.93;7.77;;;2.90;99.90;;;;;;5007978;28;20222;-64
2023/01/22 08:39:03;;;;;;;8.83;7.30;;;3.00;99.90;;;;;;5002440;28;20254;-66
2023/01/22 08:41:28;;;;;;;8.10;6.83;;;3.00;99.90;;;;;;4994752;28;20187;-64
2023/01/22 08:43:54;;;;;;;9.27;7.73;;;3.00;99.90;;;;;;5025715;28;20174;-65
2023/01/22 08:46:20;;;;;;;9.63;8.07;;;3.00;99.90;;;;;;5034154;28;20225;-64
2023/01/22 08:48:50;;;;;;;9.07;7.27;;;3.00;99.90;;;;;;5034167;28;20198;-64
2023/01/22 08:51:16;;;;;;;10.23;7.83;;;3.00;99.90;;;;;;5028230;28;20201;-64
2023/01/22 08:53:41;;;;;;;9.53;7.50;;;3.10;99.90;;;;;;5003146;28;20175;-63
2023/01/22 08:56:11;;;;;;;9.53;8.07;;;3.00;99.90;;;;;;5002473;28;20183;-64
2023/01/22 08:58:39;;;;;;;9.70;7.63;;;3.10;99.90;;;;;;5000643;28;20187;-63
2023/01/22 09:01:04;;;;;;;9.27;7.87;;;3.10;99.90;;;;;;5005349;28;20203;-63
2023/01/22 09:03:30;;;;;;;8.17;6.90;;;3.10;99.90;;;;;;4994374;28;20246;-64
2023/01/22 09:05:59;;;;;;;9.10;7.47;;;3.10;99.90;;;;;;5012406;28;20265;-63
2023/01/22 09:08:24;;;;;;;11.03;7.57;;;3.10;99.90;;;;;;5034476;28;20209;-73
2023/01/22 09:10:53;;;;;;;10.77;8.60;;;3.20;99.90;;;;;;5015399;28;20191;-74
2023/01/22 09:13:19;;;;;;;10.90;8.30;;;3.10;99.90;;;;;;5023199;28;20256;-74
2023/01/22 09:15:44;;;;;;;8.03;6.73;;;3.10;99.90;;;;;;5014924;28;20187;-74
2023/01/22 09:18:12;;;;;;;10.47;7.73;;;3.10;99.90;;;;;;5002420;28;20186;-74
2023/01/22 09:20:38;;;;;;;9.60;8.00;;;3.20;99.90;;;;;;5011947;28;20217;-74
2023/01/22 09:23:04;;;;;;;9.30;7.73;;;3.20;99.90;;;;;;5005762;28;20174;-70
2023/01/22 09:25:29;;;;;;;10.03;7.90;;;3.20;99.90;;;;;;5016301;28;20340;-74
2023/01/22 09:27:59;;;;;;;9.40;7.77;;;3.20;99.90;;;;;;4997865;28;20175;-74
2023/01/22 09:30:28;;;;;;;9.60;7.93;;;3.30;99.90;;;;;;5011004;28;20217;-74
2023/01/22 09:32:54;;;;;;;10.17;7.83;;;3.30;99.90;;;;;;5017714;28;20183;-73
2023/01/22 09:35:19;;;;;;;9.43;7.93;;;3.30;99.90;;;;;;5017531;28;20185;-73
2023/01/22 09:37:55;;;;;;;9.27;7.57;;;3.30;99.90;;;;;;5027379;28;20226;-74
2023/01/22 09:40:26;;;;;;;9.43;7.50;;;3.40;99.90;;;;;;5037037;28;20185;-74
2023/01/22 09:43:17;;;;;;;10.40;7.60;;;3.40;99.90;;;;;;5035565;28;20256;-73
2023/01/22 09:45:43;;;;;;;10.63;8.33;;;3.40;99.90;;;;;;5011852;28;20182;-73
2023/01/22 09:48:15;;;;;;;9.80;7.77;;;3.40;99.90;;;;;;5008845;28;20262;-74
2023/01/22 09:50:42;;;;;;;10.83;8.40;;;3.40;99.90;;;;;;5016747;28;20206;-71
2023/01/22 09:53:14;;;;;;;10.20;8.00;;;3.50;99.90;;;;;;5013533;28;20187;-71
2023/01/22 09:55:48;;;;;;;8.97;7.50;;;3.50;99.90;;;;;;5012409;28;20285;-74
2023/01/22 09:58:17;;;;;;;9.87;8.13;;;3.50;99.90;;;;;;5006223;28;20252;-74
2023/01/22 10:00:59;;;;;;;8.73;7.50;;;3.50;99.90;;;;;;5017881;28;20238;-75
2023/01/22 10:03:36;;;;;;;8.90;6.93;;;3.50;99.90;;;;;;5009388;28;20179;-74
2023/01/22 10:06:14;;;;;;;8.00;6.83;;;3.50;99.90;;;;;;4997319;28;20234;-73
2023/01/22 10:08:57;;;;;;;8.33;7.03;;;3.50;99.90;;;;;;5000897;28;20194;-74
2023/01/22 10:11:23;;;;;;;8.27;6.90;;;3.60;99.90;;;;;;4999835;28;20246;-71
2023/01/22 10:13:54;;;;;;;9.07;6.93;;;3.60;99.90;;;;;;4997064;28;20183;-71
2023/01/22 10:16:20;;;;;;;8.30;7.17;;;3.60;99.90;;;;;;5021668;28;20209;-71
2023/01/22 10:19:01;;;;;;;8.93;7.63;;;3.70;99.90;;;;;;5009493;28;20180;-71
2023/01/22 10:21:41;;;;;;;9.67;7.57;;;3.70;99.90;;;;;;4996972;28;20207;-74
2023/01/22 10:24:11;;;;;;;9.03;7.57;;;3.80;99.90;;;;;;5003596;28;20181;-75
2023/01/22 10:26:48;;;;;;;9.53;7.70;;;3.70;99.90;;;;;;5016657;28;20238;-75
2023/01/22 10:29:39;;;;;;;11.03;8.50;;;3.80;99.90;;;;;;5022469;28;20193;-75
2023/01/22 10:32:22;;;;;;;10.00;8.33;;;3.70;99.90;;;;;;5010376;28;20171;-73
2023/01/22 10:35:10;;;;;;;10.47;7.47;;;3.70;99.90;;;;;;4997113;28;20203;-74
2023/01/22 10:37:45;;;;;;;8.50;7.13;;;3.70;99.90;;;;;;5027259;28;20193;-73
2023/01/22 10:40:31;;;;;;;10.63;8.03;;;3.70;99.90;;;;;;5010883;28;20210;-73
2023/01/22 10:43:16;;;;;;;10.80;8.23;;;3.70;99.90;;;;;;4996862;28;20179;-76
2023/01/22 10:45:51;;;;;;;9.00;7.30;;;3.60;99.90;;;;;;5001779;28;20218;-74
2023/01/22 10:48:17;;;;;;;10.87;8.27;;;3.70;99.90;;;;;;4996562;28;20202;-74
2023/01/22 10:50:46;;;;;;;9.27;7.80;;;3.60;99.90;;;;;;4996446;28;20202;-73
2023/01/22 10:53:35;;;;;;;10.27;8.20;;;3.70;99.90;;;;;;4996315;28;20294;-70
2023/01/22 10:56:06;;;;;;;9.30;7.47;;;3.60;99.90;;;;;;4996172;28;20176;-73
2023/01/22 10:58:35;;;;;;;8.23;6.67;;;3.60;99.90;;;;;;5002285;28;20183;-71
2023/01/22 11:01:04;;;;;;;8.57;6.97;;;3.70;99.90;;;;;;5014610;28;20198;-74
2023/01/22 11:03:37;;;;;;;8.23;6.57;;;3.70;99.90;;;;;;5015773;28;20167;-74
2023/01/22 11:06:17;;;;;;;6.17;5.57;;;3.70;99.90;;;;;;5015524;28;20187;-74
2023/01/22 11:09:09;;;;;;;8.40;6.70;;;3.70;99.90;;;;;;5015881;28;20273;-70
2023/01/22 11:11:41;;;;;;;9.13;7.20;;;3.80;99.90;;;;;;5014663;28;20182;-74
2023/01/22 11:14:35;;;;;;;8.77;6.50;;;3.80;99.90;;;;;;5015344;28;20175;-73
2023/01/22 11:17:22;;;;;;;8.77;7.27;;;3.80;99.90;;;;;;5015528;28;20174;-71
2023/01/22 11:19:59;;;;;;;8.23;6.97;;;3.80;99.90;;;;;;5015302;28;20232;-74
2023/01/22 11:22:36;;;;;;;9.67;7.17;;;3.80;99.90;;;;;;5015285;28;20327;-73
2023/01/22 11:25:02;;;;;;;8.37;6.63;;;3.90;99.90;;;;;;5011899;28;20199;-73
2023/01/22 11:27:36;;;;;;;7.53;6.23;;;3.90;99.90;;;;;;5008871;28;20187;-74
2023/01/22 11:30:28;;;;;;;7.77;6.40;;;3.90;99.90;;;;;;4995863;28;20175;-73
2023/01/22 11:33:25;;;;;;;7.90;5.80;;;3.90;99.90;;;;;;4995558;28;20471;-72
2023/01/22 11:36:34;;;;;;;9.43;6.77;;;3.90;99.90;;;;;;5001494;28;20239;-73
2023/01/22 11:39:37;;;;;;;8.27;6.57;;;3.90;99.90;;;;;;4987644;28;20275;-75
2023/01/22 11:42:12;;;;;;;9.20;7.30;;;3.90;99.90;;;;;;5008947;28;20262;-75
2023/01/22 11:45:13;;;;;;;8.33;6.57;;;3.90;99.90;;;;;;5014774;28;20201;-76
2023/01/22 11:48:01;;;;;;;7.97;6.03;;;3.90;99.90;;;;;;5002672;28;20223;-75
2023/01/22 11:50:57;;;;;;;7.50;6.10;;;3.90;99.90;;;;;;5014701;28;20252;-73
2023/01/22 11:53:44;;;;;;;7.33;5.97;;;3.90;99.90;;;;;;4999711;28;20202;-74
2023/01/22 11:56:28;;;;;;;8.77;6.80;;;3.90;99.90;;;;;;5011634;28;20179;-74
2023/01/22 11:59:03;;;;;;;7.37;6.23;;;3.90;99.90;;;;;;5030115;28;20173;-70
2023/01/22 12:01:31;;;;;;;8.53;7.30;;;4.00;99.90;;;;;;5016811;28;20180;-73
2023/01/22 12:04:21;;;;;;;8.30;7.07;;;4.00;99.90;;;;;;5010367;28;20172;-75
2023/01/22 12:07:28;;;;;;;7.50;6.70;;;4.00;99.90;;;;;;5015383;28;20241;-74
2023/01/22 12:10:25;;;;;;;8.97;7.20;;;4.00;99.90;;;;;;5031035;28;20289;-74
2023/01/22 12:13:05;;;;;;;8.23;6.87;;;4.00;99.90;;;;;;4995407;28;20179;-74
2023/01/22 12:15:33;;;;;;;8.47;6.67;;;4.00;99.90;;;;;;4994926;28;20198;-73
2023/01/22 12:18:29;;;;;;;7.67;6.70;;;4.00;99.90;;;;;;5007130;28;20179;-74
2023/01/22 12:21:25;;;;;;;7.50;6.40;;;4.00;99.90;;;;;;5015611;28;20210;-74
2023/01/22 12:24:04;;;;;;;8.30;7.27;;;4.00;99.90;;;;;;5014621;28;20167;-72
2023/01/22 12:26:42;;;;;;;8.10;6.97;;;4.00;99.90;;;;;;5014522;28;20256;-73
2023/01/22 12:29:55;;;;;;;7.33;6.53;;;4.00;99.90;;;;;;5006213;28;20210;-73
2023/01/22 12:32:24;;;;;;;6.73;5.63;;;4.00;99.90;;;;;;4975199;28;20203;-73
2023/01/22 12:35:03;;;;;;;7.83;6.17;;;4.00;99.90;;;;;;4993483;28;20223;-71
2023/01/22 12:37:43;;;;;;;7.13;6.00;;;4.10;99.90;;;;;;4995014;28;20164;-73
2023/01/22 12:40:45;;;;;;;7.87;6.77;;;4.10;99.90;;;;;;4994733;28;20195;-73
2023/01/22 12:43:13;;;;;;;8.50;7.10;;;4.10;99.90;;;;;;5006806;28;20182;-72
2023/01/22 12:45:42;;;;;;;9.63;7.40;;;4.10;99.90;;;;;;5008944;28;20175;-74
2023/01/22 12:48:16;;;;;;;8.67;7.30;;;4.10;99.90;;;;;;5010755;28;20285;-73
2023/01/22 12:50:50;;;;;;;8.40;7.37;;;4.00;99.90;;;;;;5011141;28;20209;-73
2023/01/22 12:53:27;;;;;;;10.00;7.97;;;4.00;99.90;;;;;;5000984;28;20234;-71
2023/01/22 12:56:13;;;;;;;8.73;7.80;;;4.00;99.90;;;;;;5011779;28;20187;-72
2023/01/22 12:58:42;;;;;;;9.13;7.83;;;4.00;99.90;;;;;;5012902;28;20217;-74
2023/01/22 13:01:08;;;;;;;10.20;8.80;;;4.00;99.90;;;;;;5023878;28;20230;-71
2023/01/22 13:03:36;;;;;;;8.83;7.77;;;3.90;99.90;;;;;;5013021;28;20245;-73
2023/01/22 13:06:21;;;;;;;10.87;8.70;;;3.90;99.90;;;;;;5013057;28;20183;-74
2023/01/22 13:08:49;;;;;;;9.57;8.00;;;3.80;99.90;;;;;;5015419;28;20174;-73
2023/01/22 13:11:50;;;;;;;9.83;7.90;;;3.80;99.90;;;;;;5017514;28;20171;-74
2023/01/22 13:14:18;;;;;;;8.53;7.10;;;3.80;99.90;;;;;;4989619;28;20312;-73
2023/01/22 13:16:55;;;;;;;8.70;7.27;;;3.90;99.90;;;;;;5036308;28;20199;-72